sensor_id;sensor_type;location;lat;lon;timestamp;temperature;humidity
445;DHT22;209;48.774;9.238;2022-09-17T07:28:38;17.40;1.00
445;DHT22;209;48.774;9.238;2022-09-17T07:31:25;11.50;1.00
445;DHT22;209;48.774;9.238;2022-09-17T07:34:15;11.40;1.00
445;DHT22;209;48.774;9.238;2022-09-17T07:37:02;11.30;1.00
445;DHT22;209;48.774;9.238;2022-09-17T07:39:50;11.30;1.00
445;DHT22;209;48.774;9.238;2022-09-17T07:42:37;11.20;1.00
445;DHT22;209;48.774;9.238;2022-09-17T07:45:24;11.10;1.00
445;DHT22;209;48.774;9.238;2022-09-17T07:48:15;11.20;1.00
445;DHT22;209;48.774;9.238;2022-09-17T07:51:05;11.20;1.00
445;DHT22;209;48.774;9.238;2022-09-17T07:53:53;11.30;1.00
445;DHT22;209;48.774;9.238;2022-09-17T07:56:41;11.30;1.00
445;DHT22;209;48.774;9.238;2022-09-17T07:59:31;11.20;1.00
445;DHT22;209;48.774;9.238;2022-09-17T08:02:18;11.20;1.00
445;DHT22;209;48.774;9.238;2022-09-17T08:05:06;11.20;1.00
445;DHT22;209;48.774;9.238;2022-09-17T08:07:56;11.20;1.00
445;DHT22;209;48.774;9.238;2022-09-17T08:10:43;11.40;1.00
445;DHT22;209;48.774;9.238;2022-09-17T13:18:40;11.50;1.00
445;DHT22;209;48.774;9.238;2022-09-17T13:21:38;13.20;1.00
445;DHT22;209;48.774;9.238;2022-09-17T13:24:30;13.00;1.00
445;DHT22;209;48.774;9.238;2022-09-17T13:27:22;13.10;1.00
445;DHT22;209;48.774;9.238;2022-09-17T13:30:14;13.10;1.00
445;DHT22;209;48.774;9.238;2022-09-17T13:33:02;13.30;1.00
445;DHT22;209;48.774;9.238;2022-09-17T13:35:52;13.20;1.00
445;DHT22;209;48.774;9.238;2022-09-17T13:38:42;13.20;1.00
445;DHT22;209;48.774;9.238;2022-09-17T13:41:34;13.30;1.00
445;DHT22;209;48.774;9.238;2022-09-17T13:44:35;13.40;1.00
445;DHT22;209;48.774;9.238;2022-09-17T13:47:29;13.50;1.00
445;DHT22;209;48.774;9.238;2022-09-17T13:50:36;13.50;1.00
445;DHT22;209;48.774;9.238;2022-09-17T13:53:25;13.70;1.00
445;DHT22;209;48.774;9.238;2022-09-17T13:56:29;13.70;1.00
445;DHT22;209;48.774;9.238;2022-09-17T13:59:19;13.80;1.00
445;DHT22;209;48.774;9.238;2022-09-17T14:02:33;13.80;1.00
445;DHT22;209;48.774;9.238;2022-09-17T14:05:39;13.70;1.00
445;DHT22;209;48.774;9.238;2022-09-17T14:08:46;13.80;1.00
445;DHT22;209;48.774;9.238;2022-09-17T14:11:38;13.90;1.00
445;DHT22;209;48.774;9.238;2022-09-17T14:14:46;13.90;1.00
445;DHT22;209;48.774;9.238;2022-09-17T14:18:04;13.90;1.00
445;DHT22;209;48.774;9.238;2022-09-17T14:21:21;14.10;1.00
445;DHT22;209;48.774;9.238;2022-09-17T19:22:16;14.20;1.00
445;DHT22;209;48.774;9.238;2022-09-17T19:25:05;11.50;1.00
445;DHT22;209;48.774;9.238;2022-09-17T19:28:04;11.40;1.00
445;DHT22;209;48.774;9.238;2022-09-17T19:30:55;11.20;1.00
445;DHT22;209;48.774;9.238;2022-09-17T19:33:47;11.20;1.00
445;DHT22;209;48.774;9.238;2022-09-17T19:36:49;11.20;1.00
445;DHT22;209;48.774;9.238;2022-09-17T19:39:47;11.10;1.00
445;DHT22;209;48.774;9.238;2022-09-17T19:42:59;11.00;1.00
445;DHT22;209;48.774;9.238;2022-09-17T19:45:50;11.00;1.00
445;DHT22;209;48.774;9.238;2022-09-17T19:48:45;11.00;1.00
445;DHT22;209;48.774;9.238;2022-09-17T19:51:34;11.00;1.00
445;DHT22;209;48.774;9.238;2022-09-17T19:54:22;11.00;1.00
445;DHT22;209;48.774;9.238;2022-09-17T19:57:12;11.00;1.00
445;DHT22;209;48.774;9.238;2022-09-17T19:59:59;10.90;1.00
445;DHT22;209;48.774;9.238;2022-09-17T20:02:56;10.90;1.00
445;DHT22;209;48.774;9.238;2022-09-17T20:05:43;10.90;1.00
445;DHT22;209;48.774;9.238;2022-09-17T20:08:34;10.80;1.00
445;DHT22;209;48.774;9.238;2022-09-17T20:11:24;10.90;1.00
445;DHT22;209;48.774;9.238;2022-09-17T20:14:13;10.90;1.00
445;DHT22;209;48.774;9.238;2022-09-17T20:17:01;10.90;1.00
445;DHT22;209;48.774;9.238;2022-09-17T20:19:48;10.90;1.00
445;DHT22;209;48.774;9.238;2022-09-17T20:22:36;10.90;1.00
445;DHT22;209;48.774;9.238;2022-09-17T20:25:24;11.00;1.00
445;DHT22;209;48.774;9.238;2022-09-17T20:28:11;10.90;1.00
445;DHT22;209;48.774;9.238;2022-09-17T20:31:01;11.00;1.00
445;DHT22;209;48.774;9.238;2022-09-17T20:33:51;11.10;1.00
445;DHT22;209;48.774;9.238;2022-09-17T20:36:39;11.10;1.00
445;DHT22;209;48.774;9.238;2022-09-17T20:39:26;11.10;1.00
445;DHT22;209;48.774;9.238;2022-09-17T20:42:13;11.00;1.00
445;DHT22;209;48.774;9.238;2022-09-17T20:45:01;10.90;1.00
445;DHT22;209;48.774;9.238;2022-09-17T20:47:49;10.90;1.00
445;DHT22;209;48.774;9.238;2022-09-17T20:50:37;10.90;1.00
445;DHT22;209;48.774;9.238;2022-09-17T20:53:25;10.90;1.00
445;DHT22;209;48.774;9.238;2022-09-17T20:56:16;10.90;1.00
445;DHT22;209;48.774;9.238;2022-09-17T20:59:05;10.90;1.00
445;DHT22;209;48.774;9.238;2022-09-17T21:01:59;10.90;1.00
445;DHT22;209;48.774;9.238;2022-09-17T21:04:49;10.90;1.00
445;DHT22;209;48.774;9.238;2022-09-17T21:07:36;11.00;1.00
445;DHT22;209;48.774;9.238;2022-09-17T21:10:24;11.00;1.00
445;DHT22;209;48.774;9.238;2022-09-17T21:13:11;11.00;1.00
445;DHT22;209;48.774;9.238;2022-09-17T21:15:59;11.00;1.00
445;DHT22;209;48.774;9.238;2022-09-17T21:18:47;11.00;1.00
445;DHT22;209;48.774;9.238;2022-09-17T21:21:36;11.00;1.00
445;DHT22;209;48.774;9.238;2022-09-17T21:24:23;11.10;1.00
445;DHT22;209;48.774;9.238;2022-09-17T21:27:10;11.10;1.00
445;DHT22;209;48.774;9.238;2022-09-17T21:29:58;11.10;1.00
445;DHT22;209;48.774;9.238;2022-09-17T21:32:49;11.10;1.00
445;DHT22;209;48.774;9.238;2022-09-17T21:35:37;11.10;1.00
445;DHT22;209;48.774;9.238;2022-09-17T21:38:25;11.10;1.00
445;DHT22;209;48.774;9.238;2022-09-17T21:41:14;11.10;1.00
445;DHT22;209;48.774;9.238;2022-09-17T21:44:01;11.20;1.00
445;DHT22;209;48.774;9.238;2022-09-17T21:46:49;11.20;1.00
445;DHT22;209;48.774;9.238;2022-09-17T21:49:41;11.20;1.00
445;DHT22;209;48.774;9.238;2022-09-17T21:52:29;11.20;1.00
445;DHT22;209;48.774;9.238;2022-09-17T21:55:18;11.20;1.00
445;DHT22;209;48.774;9.238;2022-09-17T21:58:05;11.20;1.00
445;DHT22;209;48.774;9.238;2022-09-17T22:00:54;11.20;1.00
445;DHT22;209;48.774;9.238;2022-09-17T22:03:44;11.20;1.00
445;DHT22;209;48.774;9.238;2022-09-17T22:06:32;11.30;1.00
445;DHT22;209;48.774;9.238;2022-09-17T22:09:21;11.30;1.00
445;DHT22;209;48.774;9.238;2022-09-17T22:12:10;11.20;1.00
445;DHT22;209;48.774;9.238;2022-09-17T22:14:57;11.30;1.00
445;DHT22;209;48.774;9.238;2022-09-17T22:17:44;11.30;1.00
445;DHT22;209;48.774;9.238;2022-09-17T22:20:31;11.20;1.00
445;DHT22;209;48.774;9.238;2022-09-17T22:23:18;11.10;1.00
445;DHT22;209;48.774;9.238;2022-09-17T22:26:07;11.00;1.00
445;DHT22;209;48.774;9.238;2022-09-17T22:29:00;11.00;1.00
445;DHT22;209;48.774;9.238;2022-09-17T22:31:48;11.00;1.00
445;DHT22;209;48.774;9.238;2022-09-17T22:34:35;10.90;1.00
445;DHT22;209;48.774;9.238;2022-09-17T22:37:22;10.90;1.00
445;DHT22;209;48.774;9.238;2022-09-17T22:40:10;11.00;1.00
445;DHT22;209;48.774;9.238;2022-09-17T22:42:57;11.00;1.00
445;DHT22;209;48.774;9.238;2022-09-17T22:45:46;11.00;1.00
445;DHT22;209;48.774;9.238;2022-09-17T22:48:33;11.00;1.00
445;DHT22;209;48.774;9.238;2022-09-17T22:51:21;11.00;1.00
445;DHT22;209;48.774;9.238;2022-09-17T22:54:10;11.00;1.00
445;DHT22;209;48.774;9.238;2022-09-17T22:56:57;10.90;1.00
445;DHT22;209;48.774;9.238;2022-09-17T22:59:45;10.90;1.00
445;DHT22;209;48.774;9.238;2022-09-17T23:02:33;11.00;1.00
445;DHT22;209;48.774;9.238;2022-09-17T23:15:51;11.10;1.00
445;DHT22;209;48.774;9.238;2022-09-17T23:23:49;11.10;1.00
